createdAt,value
2018-08-28T00:01:33.968Z,98659.28
2018-08-28T00:04:03.707Z,98655.16
2018-08-28T00:06:32.076Z,98667.36
2018-08-28T00:09:00.496Z,98664.80
2018-08-28T00:11:30.223Z,98668.32
2018-08-28T00:13:58.548Z,98664.02
2018-08-28T00:16:27.031Z,98669.19
2018-08-28T00:18:55.341Z,98674.73
2018-08-28T00:21:24.562Z,98684.92
2018-08-28T00:23:53.124Z,98683.14
2018-08-28T00:26:21.470Z,98682.17
2018-08-28T00:28:49.748Z,98682.11
2018-08-28T00:31:18.424Z,98680.59
2018-08-28T00:33:47.077Z,98684.50
2018-08-28T00:36:16.274Z,98686.75
2018-08-28T00:38:44.615Z,98684.89
2018-08-28T00:41:13.304Z,98686.02
2018-08-28T00:43:42.093Z,98684.33
2018-08-28T00:46:11.350Z,98690.49
2018-08-28T00:48:39.566Z,98682.58
2018-08-28T00:51:08.148Z,98683.17
2018-08-28T00:53:36.392Z,98682.30
2018-08-28T00:56:05.019Z,98684.55
2018-08-28T00:58:33.457Z,98690.09
2018-08-28T01:01:02.252Z,98688.63
2018-08-28T01:03:30.838Z,98687.41
2018-08-28T01:05:59.828Z,98685.84
2018-08-28T01:08:28.064Z,98687.46
2018-08-28T01:10:56.293Z,98682.31
2018-08-28T01:13:24.790Z,98682.84
2018-08-28T01:15:53.000Z,98688.72
2018-08-28T01:18:21.752Z,98691.05
2018-08-28T01:20:51.112Z,98689.16
2018-08-28T01:23:21.668Z,98688.49
2018-08-28T01:25:50.487Z,98687.14
2018-08-28T01:28:19.192Z,98683.75
2018-08-28T01:30:47.744Z,98686.95
2018-08-28T01:33:16.645Z,98693.44
2018-08-28T01:35:44.914Z,98690.48
2018-08-28T01:38:14.247Z,98691.97
2018-08-28T01:40:42.665Z,98694.48
2018-08-28T01:43:16.588Z,98696.07
2018-08-28T01:45:45.976Z,98691.47
2018-08-28T01:48:14.597Z,98690.64
2018-08-28T01:50:42.895Z,98689.44
2018-08-28T01:53:11.594Z,98694.86
2018-08-28T01:55:40.220Z,98678.73
2018-08-28T01:58:08.483Z,98677.78
2018-08-28T02:00:37.032Z,98681.07
2018-08-28T02:03:05.582Z,98691.20
2018-08-28T02:05:34.236Z,98682.00
2018-08-28T02:08:02.543Z,98684.76
2018-08-28T02:10:31.368Z,98684.14
2018-08-28T02:13:00.313Z,98683.88
2018-08-28T02:15:28.605Z,98683.45
2018-08-28T02:17:56.855Z,98683.59
2018-08-28T02:20:25.828Z,98683.25
2018-08-28T02:22:54.047Z,98688.25
2018-08-28T02:25:22.921Z,98690.45
2018-08-28T02:27:51.529Z,98691.78
2018-08-28T02:30:20.333Z,98681.44
2018-08-28T02:32:48.918Z,98682.74
2018-08-28T02:35:17.214Z,98683.22
2018-08-28T02:37:45.560Z,98685.21
2018-08-28T02:40:14.120Z,98676.20
2018-08-28T02:42:42.335Z,98683.91
2018-08-28T02:45:10.601Z,98678.91
2018-08-28T02:47:39.275Z,98685.91
2018-08-28T02:50:07.547Z,98693.38
2018-08-28T02:52:36.248Z,98690.86
2018-08-28T02:55:04.712Z,98699.97
2018-08-28T02:57:33.614Z,98696.74
2018-08-28T03:00:01.850Z,98697.45
2018-08-28T03:02:30.656Z,98704.89
2018-08-28T03:04:59.240Z,98700.80
2018-08-28T03:07:28.028Z,98703.05
2018-08-28T03:09:56.955Z,98709.58
2018-08-28T03:12:25.545Z,98709.09
2018-08-28T03:14:53.876Z,98712.41
2018-08-28T03:17:22.148Z,98712.27
2018-08-28T03:19:50.729Z,98708.56
2018-08-28T03:22:19.940Z,98711.34
2018-08-28T03:24:48.391Z,98710.44
2018-08-28T03:27:16.812Z,98710.15
2018-08-28T03:29:45.051Z,98709.47
2018-08-28T03:32:14.109Z,98709.50
2018-08-28T03:34:42.964Z,98710.12
2018-08-28T03:37:11.802Z,98713.89
2018-08-28T03:39:40.334Z,98723.62
2018-08-28T03:42:08.918Z,98722.70
2018-08-28T03:44:37.159Z,98722.59
2018-08-28T03:47:05.547Z,98723.92
2018-08-28T03:49:33.858Z,98721.02
2018-08-28T03:52:02.773Z,98721.25
2018-08-28T03:54:31.425Z,98730.11
2018-08-28T03:57:00.008Z,98730.02
2018-08-28T03:59:28.318Z,98734.89
2018-08-28T04:01:56.824Z,98733.08
2018-08-28T04:04:25.355Z,98742.42
2018-08-28T04:06:55.375Z,98737.33
2018-08-28T04:09:24.909Z,98736.14
2018-08-28T04:11:54.588Z,98741.23
2018-08-28T04:14:23.479Z,98742.17
2018-08-28T04:16:52.558Z,98749.27
2018-08-28T04:19:20.891Z,98752.34
2018-08-28T04:21:49.157Z,98752.45
2018-08-28T04:24:18.380Z,98752.08
2018-08-28T04:26:46.941Z,98749.23
2018-08-28T04:29:15.179Z,98751.34
2018-08-28T04:31:44.112Z,98757.50
2018-08-28T04:34:12.338Z,98757.16
2018-08-28T04:36:40.568Z,98756.07
2018-08-28T04:39:09.525Z,98758.19
2018-08-28T04:41:37.843Z,98762.39
2018-08-28T04:44:06.328Z,98758.38
2018-08-28T04:46:34.696Z,98766.06
2018-08-28T04:49:03.337Z,98764.63
2018-08-28T04:51:32.336Z,98764.16
2018-08-28T04:54:00.598Z,98767.98
2018-08-28T04:56:29.086Z,98766.07
2018-08-28T04:58:57.332Z,98770.67
2018-08-28T05:01:26.216Z,98772.86
2018-08-28T05:03:54.731Z,98770.00
2018-08-28T05:06:23.090Z,98778.03
2018-08-28T05:08:51.504Z,98784.09
2018-08-28T05:11:20.547Z,98786.14
2018-08-28T05:13:49.304Z,98791.27
2018-08-28T05:16:17.512Z,98789.03
2018-08-28T05:18:46.291Z,98790.01
2018-08-28T05:21:14.973Z,98787.61
2018-08-28T05:23:43.403Z,98784.45
2018-08-28T05:26:12.249Z,98779.31
2018-08-28T05:28:40.688Z,98783.52
2018-08-28T05:31:09.660Z,98777.02
2018-08-28T05:33:38.268Z,98787.61
2018-08-28T05:36:07.910Z,98789.82
2018-08-28T05:38:36.285Z,98785.99
2018-08-28T05:41:04.978Z,98788.41
2018-08-28T05:43:33.885Z,98789.63
2018-08-28T05:46:03.701Z,98789.64
2018-08-28T05:48:32.343Z,98785.81
2018-08-28T05:51:01.873Z,98788.42
2018-08-28T05:53:31.022Z,98784.16
2018-08-28T05:55:59.541Z,98783.22
2018-08-28T05:58:28.212Z,98778.95
2018-08-28T06:00:56.701Z,98781.03
2018-08-28T06:03:26.015Z,98779.98
2018-08-28T06:05:55.454Z,98779.08
2018-08-28T06:08:24.760Z,98778.11
2018-08-28T06:10:53.063Z,98777.34
2018-08-28T06:13:21.693Z,98780.23
2018-08-28T06:15:50.272Z,98787.94
2018-08-28T06:18:18.626Z,98786.25
2018-08-28T06:20:47.037Z,98793.10
2018-08-28T06:23:15.949Z,98789.09
2018-08-28T06:25:44.472Z,98788.86
2018-08-28T06:28:13.019Z,98791.88
2018-08-28T06:30:41.796Z,98789.20
2018-08-28T06:33:10.387Z,98788.91
2018-08-28T06:35:38.984Z,98788.81
2018-08-28T06:38:07.317Z,98793.52
2018-08-28T06:40:35.592Z,98784.69
2018-08-28T06:43:04.057Z,98784.03
2018-08-28T06:45:34.579Z,98782.67
2018-08-28T06:48:02.852Z,98790.56
2018-08-28T06:50:31.367Z,98790.33
2018-08-28T06:52:59.713Z,98782.45
2018-08-28T06:55:28.260Z,98796.11
2018-08-28T06:57:56.498Z,98787.80
2018-08-28T07:00:24.770Z,98787.42
2018-08-28T07:02:53.676Z,98786.72
2018-08-28T07:05:22.013Z,98782.66
2018-08-28T07:07:51.918Z,98788.23
2018-08-28T07:10:20.273Z,98786.86
2018-08-28T07:12:49.784Z,98788.03
2018-08-28T07:15:18.358Z,98788.38
2018-08-28T07:17:47.761Z,98786.31
2018-08-28T07:20:16.744Z,98789.83
2018-08-28T07:22:45.177Z,98784.27
2018-08-28T07:25:15.316Z,98772.23
2018-08-28T07:27:43.590Z,98777.94
2018-08-28T07:30:12.458Z,98777.15
2018-08-28T07:32:41.108Z,98774.37
2018-08-28T07:35:10.060Z,98775.86
2018-08-28T07:37:38.745Z,98780.48
2018-08-28T07:40:08.627Z,98774.94
2018-08-28T07:42:37.489Z,98781.49
2018-08-28T07:45:06.048Z,98773.75
2018-08-28T07:47:34.982Z,98776.26
2018-08-28T07:50:03.800Z,98777.44
2018-08-28T07:52:32.335Z,98779.55
2018-08-28T07:55:00.882Z,98774.79
2018-08-28T07:57:29.887Z,98778.22
2018-08-28T07:59:58.401Z,98772.98
2018-08-28T08:02:26.987Z,98779.84
2018-08-28T08:04:56.210Z,98777.56
2018-08-28T08:07:25.873Z,98780.14
2018-08-28T08:09:54.542Z,98781.48
2018-08-28T08:12:22.801Z,98782.45
2018-08-28T08:14:52.475Z,98781.44
2018-08-28T08:17:23.058Z,98780.13
2018-08-28T08:19:52.108Z,98782.34
2018-08-28T08:22:24.546Z,98778.16
2018-08-28T08:24:56.484Z,98780.66
2018-08-28T08:27:27.377Z,98787.38
2018-08-28T08:29:56.199Z,98783.45
2018-08-28T08:32:26.117Z,98779.08
2018-08-28T08:34:54.653Z,98777.56
2018-08-28T08:37:25.106Z,98776.38
2018-08-28T08:39:53.687Z,98782.67
2018-08-28T08:42:22.108Z,98779.88
2018-08-28T08:44:50.456Z,98776.06
2018-08-28T08:47:18.833Z,98781.72
2018-08-28T08:49:47.328Z,98779.59
2018-08-28T08:52:15.624Z,98778.47
2018-08-28T08:54:44.172Z,98763.22
2018-08-28T08:57:12.491Z,98772.31
2018-08-28T08:59:40.720Z,98775.72
2018-08-28T09:02:08.954Z,98769.64
2018-08-28T09:04:37.411Z,98760.84
2018-08-28T09:07:05.661Z,98765.80
2018-08-28T09:09:34.218Z,98763.25
2018-08-28T09:12:02.707Z,98764.83
2018-08-28T09:14:31.089Z,98757.14
2018-08-28T09:16:59.366Z,98757.78
2018-08-28T09:19:28.592Z,98760.80
2018-08-28T09:21:56.929Z,98759.95
2018-08-28T09:24:25.296Z,98761.13
2018-08-28T09:26:53.710Z,98762.34
2018-08-28T09:29:22.117Z,98756.61
2018-08-28T09:31:50.407Z,98758.52
2018-08-28T09:34:18.977Z,98752.28
2018-08-28T09:36:48.477Z,98750.20
2018-08-28T09:39:17.048Z,98747.09
2018-08-28T09:41:46.401Z,98752.06
2018-08-28T09:44:15.002Z,98743.86
2018-08-28T09:46:43.528Z,98751.05
2018-08-28T09:49:11.728Z,98742.09
2018-08-28T09:51:40.525Z,98742.22
2018-08-28T09:54:10.682Z,98733.61
2018-08-28T09:56:40.254Z,98731.89
2018-08-28T09:59:09.878Z,98734.30
2018-08-28T10:01:45.765Z,98732.38
2018-08-28T10:04:16.977Z,98727.61
2018-08-28T10:06:48.021Z,98722.52
2018-08-28T10:09:17.865Z,98718.07
2018-08-28T10:11:46.846Z,98714.91
2018-08-28T10:14:16.519Z,98709.46
2018-08-28T10:16:46.075Z,98711.20
2018-08-28T10:19:15.639Z,98700.03
2018-08-28T10:21:44.762Z,98703.25
2018-08-28T10:24:15.722Z,98691.67
2018-08-28T10:26:44.422Z,98698.53
2018-08-28T10:29:14.426Z,98700.70
2018-08-28T10:31:43.045Z,98692.76
2018-08-28T10:34:11.494Z,98687.69
2018-08-28T10:36:41.182Z,98691.77
2018-08-28T10:39:10.553Z,98687.59
2018-08-28T10:41:40.687Z,98685.31
2018-08-28T10:44:09.178Z,98684.32
2018-08-28T10:46:51.094Z,98688.80
2018-08-28T10:49:21.933Z,98686.16
2018-08-28T10:51:51.282Z,98688.53
2018-08-28T10:54:21.732Z,98681.91
2018-08-28T10:56:51.153Z,98673.31
2018-08-28T10:59:20.764Z,98680.80
2018-08-28T11:01:49.892Z,98675.20
2018-08-28T11:04:21.510Z,98671.73
2018-08-28T11:06:51.349Z,98672.28
2018-08-28T11:09:20.174Z,98673.06
2018-08-28T11:11:49.204Z,98669.52
2018-08-28T11:14:19.281Z,98673.70
2018-08-28T11:16:49.556Z,98666.37
2018-08-28T11:19:19.044Z,98669.63
2018-08-28T11:21:48.892Z,98670.83
2018-08-28T11:24:18.492Z,98663.98
2018-08-28T11:26:47.215Z,98665.38
2018-08-28T11:29:16.193Z,98665.97
2018-08-28T11:31:44.790Z,98660.72
2018-08-28T11:34:14.272Z,98657.02
2018-08-28T11:36:46.653Z,98658.00
2018-08-28T11:39:17.080Z,98654.56
2018-08-28T11:41:45.589Z,98649.02
2018-08-28T11:44:14.530Z,98653.37
2018-08-28T11:46:43.323Z,98647.38
2018-08-28T11:49:11.977Z,98647.38
2018-08-28T11:51:43.749Z,98639.31
2018-08-28T11:54:13.875Z,98633.89
2018-08-28T11:56:42.298Z,98638.63
2018-08-28T11:59:12.397Z,98632.20
2018-08-28T12:01:40.921Z,98628.75
2018-08-28T12:04:09.710Z,98623.59
2018-08-28T12:06:39.280Z,98628.07
2018-08-28T12:09:08.801Z,98632.73
2018-08-28T12:11:37.421Z,98626.27
2018-08-28T12:14:06.255Z,98625.30
2018-08-28T12:16:35.807Z,98626.23
2018-08-28T12:19:04.859Z,98626.03
2018-08-28T12:21:33.570Z,98618.60
2018-08-28T12:24:02.661Z,98624.17
2018-08-28T12:26:31.150Z,98612.92
2018-08-28T12:29:01.816Z,98613.20
2018-08-28T12:31:30.155Z,98610.62
2018-08-28T12:33:59.490Z,98611.00
2018-08-28T12:36:29.459Z,98599.02
2018-08-28T12:38:58.093Z,98594.59
2018-08-28T12:41:27.753Z,98594.38
2018-08-28T12:43:57.076Z,98593.23
2018-08-28T12:46:26.464Z,98593.48
2018-08-28T12:48:55.126Z,98587.67
2018-08-28T12:51:24.983Z,98579.87
2018-08-28T12:53:54.366Z,98583.19
2018-08-28T12:56:23.439Z,98581.92
2018-08-28T12:58:53.024Z,98572.33
2018-08-28T13:01:21.284Z,98573.72
2018-08-28T13:03:50.431Z,98570.63
2018-08-28T13:06:19.491Z,98574.63
2018-08-28T13:08:48.786Z,98572.15
2018-08-28T13:11:17.169Z,98574.41
2018-08-28T13:13:45.973Z,98568.94
2018-08-28T13:16:14.996Z,98565.05
2018-08-28T13:18:43.543Z,98570.66
2018-08-28T13:21:12.117Z,98564.14
2018-08-28T13:23:40.696Z,98562.17
2018-08-28T13:26:09.481Z,98564.09
2018-08-28T13:28:38.119Z,98561.23
2018-08-28T13:31:06.619Z,98556.53
2018-08-28T13:33:35.664Z,98558.61
2018-08-28T13:36:04.220Z,98558.53
2018-08-28T13:38:32.582Z,98555.33
2018-08-28T13:41:01.198Z,98551.56
2018-08-28T13:43:29.392Z,98558.96
2018-08-28T13:45:57.943Z,98551.43
2018-08-28T13:48:26.326Z,98552.13
2018-08-28T13:50:54.684Z,98550.77
2018-08-28T13:53:33.046Z,98552.11
2018-08-28T13:56:02.390Z,98545.20
2018-08-28T13:58:31.128Z,98546.14
2018-08-28T14:01:00.898Z,98550.76
2018-08-28T14:03:29.756Z,98540.78
2018-08-28T14:06:05.621Z,98545.86
2018-08-28T14:08:34.293Z,98536.60
2018-08-28T14:11:02.904Z,98534.98
2018-08-28T14:13:31.622Z,98534.70
2018-08-28T14:15:59.781Z,98534.16
2018-08-28T14:18:28.352Z,98530.42
2018-08-28T14:20:56.747Z,98530.05
2018-08-28T14:23:25.452Z,98524.86
2018-08-28T14:25:54.310Z,98521.36
2018-08-28T14:28:22.659Z,98517.45
2018-08-28T14:30:52.527Z,98510.52
2018-08-28T14:33:20.674Z,98517.39
2018-08-28T14:35:49.705Z,98514.41
2018-08-28T14:38:18.277Z,98512.64
2018-08-28T14:40:46.921Z,98507.73
2018-08-28T14:43:17.096Z,98508.16
2018-08-28T14:45:45.493Z,98502.38
2018-08-28T14:48:14.910Z,98504.50
2018-08-28T14:50:43.662Z,98503.94
2018-08-28T14:53:15.675Z,98505.19
2018-08-28T14:55:44.109Z,98495.20
2018-08-28T14:58:12.895Z,98497.67
2018-08-28T15:00:41.565Z,98494.88
2018-08-28T15:03:09.949Z,98493.24
2018-08-28T15:05:38.196Z,98489.80
2018-08-28T15:08:07.495Z,98487.88
2018-08-28T15:10:37.081Z,98487.52
2018-08-28T15:13:06.060Z,98485.16
2018-08-28T15:15:34.313Z,98482.98
2018-08-28T15:18:02.612Z,98478.31
2018-08-28T15:20:31.296Z,98480.70
2018-08-28T15:23:00.981Z,98484.63
2018-08-28T15:25:30.698Z,98488.56
2018-08-28T15:27:59.177Z,98485.89
2018-08-28T15:30:27.530Z,98481.00
2018-08-28T15:32:56.734Z,98473.58
2018-08-28T15:35:25.777Z,98472.15
2018-08-28T15:37:54.024Z,98470.39
2018-08-28T15:40:23.150Z,98474.23
2018-08-28T15:42:51.508Z,98466.50
2018-08-28T15:45:20.083Z,98462.63
2018-08-28T15:47:48.805Z,98453.20
2018-08-28T15:50:18.339Z,98464.37
2018-08-28T15:52:47.258Z,98461.42
2018-08-28T15:55:15.976Z,98457.66
2018-08-28T15:57:44.719Z,98462.98
2018-08-28T16:00:13.484Z,98458.58
2018-08-28T16:02:41.597Z,98462.69
2018-08-28T16:05:12.404Z,98466.91
2018-08-28T16:07:42.998Z,98466.17
2018-08-28T16:10:13.287Z,98464.59
2018-08-28T16:12:41.678Z,98460.03
2018-08-28T16:15:10.884Z,98458.17
2018-08-28T16:17:39.920Z,98455.92
2018-08-28T16:20:08.907Z,98452.33
2018-08-28T16:22:44.160Z,98450.70
2018-08-28T16:25:12.688Z,98445.33
2018-08-28T16:27:42.081Z,98446.89
2018-08-28T16:30:10.573Z,98442.05
2018-08-28T16:32:39.432Z,98439.56
2018-08-28T16:35:07.860Z,98439.71
2018-08-28T16:37:36.585Z,98435.22
2018-08-28T16:40:05.795Z,98432.61
2018-08-28T16:42:34.164Z,98433.13
2018-08-28T16:45:02.960Z,98423.63
2018-08-28T16:47:32.265Z,98433.08
2018-08-28T16:50:00.682Z,98423.70
2018-08-28T16:52:29.325Z,98419.65
2018-08-28T16:54:58.022Z,98414.84
2018-08-28T16:57:27.290Z,98417.84
2018-08-28T16:59:55.888Z,98418.91
2018-08-28T17:02:24.475Z,98410.58
2018-08-28T17:04:53.125Z,98412.52
2018-08-28T17:07:21.634Z,98412.20
2018-08-28T17:09:50.119Z,98407.97
2018-08-28T17:12:19.266Z,98403.00
2018-08-28T17:14:48.366Z,98401.16
2018-08-28T17:17:17.124Z,98408.16
2018-08-28T17:19:45.568Z,98406.33
2018-08-28T17:22:16.978Z,98411.48
2018-08-28T17:27:22.856Z,98410.81
2018-08-28T17:29:52.110Z,98414.06
2018-08-28T17:32:21.969Z,98417.62
2018-08-28T17:34:53.919Z,98417.52
2018-08-28T17:37:22.820Z,98420.86
2018-08-28T17:42:29.648Z,98417.97
2018-08-28T17:44:59.640Z,98418.44
2018-08-28T17:47:28.433Z,98424.20
2018-08-28T17:49:57.170Z,98421.28
2018-08-28T17:52:26.234Z,98430.30
2018-08-28T17:54:54.905Z,98422.38
2018-08-28T17:57:25.569Z,98421.89
2018-08-28T17:59:56.938Z,98422.60
2018-08-28T18:02:25.237Z,98422.45
2018-08-28T18:04:57.096Z,98429.01
2018-08-28T18:07:25.804Z,98420.83
2018-08-28T18:09:54.216Z,98427.46
2018-08-28T18:12:22.642Z,98422.31
2018-08-28T18:14:51.607Z,98426.66
2018-08-28T18:17:20.536Z,98426.29
2018-08-28T18:19:50.800Z,98431.03
2018-08-28T18:22:19.811Z,98435.76
2018-08-28T18:24:48.147Z,98430.22
2018-08-28T18:27:17.035Z,98431.36
2018-08-28T18:29:46.068Z,98432.00
2018-08-28T18:32:14.445Z,98430.04
2018-08-28T18:34:42.870Z,98435.72
2018-08-28T18:37:11.271Z,98431.65
2018-08-28T18:39:39.716Z,98430.89
2018-08-28T18:42:09.459Z,98435.52
2018-08-28T18:44:38.678Z,98438.66
2018-08-28T18:49:51.953Z,98444.54
2018-08-28T18:52:22.583Z,98447.20
2018-08-28T18:54:51.434Z,98440.84
2018-08-28T18:57:19.664Z,98442.70
2018-08-28T18:59:48.519Z,98446.95
2018-08-28T19:02:17.568Z,98443.55
2018-08-28T19:04:45.920Z,98438.46
2018-08-28T19:07:14.470Z,98443.44
2018-08-28T19:09:43.368Z,98442.55
2018-08-28T19:12:12.009Z,98441.61
2018-08-28T19:14:41.636Z,98450.59
2018-08-28T19:17:10.431Z,98448.39
2018-08-28T19:19:39.963Z,98440.95
2018-08-28T19:22:08.823Z,98444.03
2018-08-28T19:24:37.346Z,98440.06
2018-08-28T19:27:06.561Z,98440.06
2018-08-28T19:29:35.181Z,98439.77
2018-08-28T19:32:03.711Z,98435.16
2018-08-28T19:34:32.521Z,98430.02
2018-08-28T19:37:02.098Z,98435.80
2018-08-28T19:39:34.098Z,98435.17
2018-08-28T19:42:03.277Z,98431.42
2018-08-28T19:44:35.023Z,98425.89
2018-08-28T19:47:04.241Z,98428.81
2018-08-28T19:49:32.549Z,98426.23
2018-08-28T19:52:01.472Z,98426.40
2018-08-28T19:54:31.300Z,98425.09
2018-08-28T19:56:59.969Z,98424.16
2018-08-28T19:59:28.458Z,98426.53
2018-08-28T20:01:56.802Z,98418.56
2018-08-28T20:04:26.027Z,98420.65
2018-08-28T20:06:55.038Z,98418.55
2018-08-28T20:09:23.448Z,98422.81
2018-08-28T20:11:51.885Z,98425.99
2018-08-28T20:14:20.724Z,98415.34
2018-08-28T20:16:48.919Z,98416.05
2018-08-28T20:19:19.588Z,98421.52
2018-08-28T20:21:48.131Z,98418.25
2018-08-28T20:24:16.511Z,98414.16
2018-08-28T20:26:45.372Z,98409.27
2018-08-28T20:29:14.014Z,98409.67
2018-08-28T20:31:42.660Z,98408.70
2018-08-28T20:34:13.796Z,98404.80
2018-08-28T20:39:26.678Z,98412.50
2018-08-28T20:41:55.094Z,98404.70
2018-08-28T20:44:23.691Z,98400.16
2018-08-28T20:46:52.484Z,98396.45
2018-08-28T20:49:20.872Z,98394.47
2018-08-28T20:51:49.325Z,98399.40
2018-08-28T20:54:17.958Z,98403.02
2018-08-28T20:56:46.324Z,98399.11
2018-08-28T20:59:14.812Z,98401.56
2018-08-28T21:01:43.409Z,98393.87
2018-08-28T21:04:11.605Z,98398.43
2018-08-28T21:06:39.914Z,98394.36
2018-08-28T21:09:08.507Z,98388.34
2018-08-28T21:11:38.211Z,98389.62
2018-08-28T21:14:06.635Z,98376.92
2018-08-28T21:16:34.961Z,98373.48
2018-08-28T21:19:03.285Z,98373.98
2018-08-28T21:21:31.629Z,98368.45
2018-08-28T21:24:00.151Z,98373.16
2018-08-28T21:26:30.025Z,98368.27
2018-08-28T21:28:59.535Z,98372.67
2018-08-28T21:31:27.882Z,98367.77
2018-08-28T21:33:56.275Z,98365.16
2018-08-28T21:36:24.576Z,98369.08
2018-08-28T21:38:52.944Z,98365.83
2018-08-28T21:41:21.266Z,98364.34
2018-08-28T21:43:49.529Z,98370.87
2018-08-28T21:46:18.064Z,98364.53
2018-08-28T21:48:46.463Z,98361.27
2018-08-28T21:51:14.805Z,98358.30
2018-08-28T21:53:43.291Z,98355.70
2018-08-28T21:56:11.594Z,98358.27
2018-08-28T21:58:39.868Z,98348.63
2018-08-28T22:01:11.243Z,98349.78
2018-08-28T22:03:41.105Z,98344.88
2018-08-28T22:06:14.848Z,98347.16
2018-08-28T22:08:44.592Z,98345.02
2018-08-28T22:11:13.511Z,98342.59
2018-08-28T22:13:42.525Z,98338.02
2018-08-28T22:16:10.802Z,98333.95
2018-08-28T22:18:40.660Z,98332.63
2018-08-28T22:21:08.997Z,98342.91
2018-08-28T22:23:37.425Z,98332.63
2018-08-28T22:26:06.430Z,98337.33
2018-08-28T22:28:34.633Z,98331.47
2018-08-28T22:31:03.006Z,98335.51
2018-08-28T22:33:31.442Z,98333.38
2018-08-28T22:36:04.806Z,98330.45
2018-08-28T22:38:38.020Z,98333.20
2018-08-28T22:41:06.858Z,98338.57
2018-08-28T22:43:35.462Z,98335.33
2018-08-28T22:46:03.882Z,98324.22
2018-08-28T22:48:32.349Z,98323.22
2018-08-28T22:51:01.995Z,98318.52
2018-08-28T22:53:30.996Z,98320.11
2018-08-28T22:55:59.980Z,98324.45
2018-08-28T22:58:28.768Z,98322.64
2018-08-28T23:00:59.160Z,98318.88
2018-08-28T23:03:27.597Z,98317.41
2018-08-28T23:05:56.584Z,98313.66
2018-08-28T23:08:25.164Z,98307.30
2018-08-28T23:10:56.726Z,98309.45
2018-08-28T23:13:27.501Z,98309.95
2018-08-28T23:15:58.909Z,98307.50
2018-08-28T23:18:28.923Z,98305.40
2018-08-28T23:20:59.718Z,98291.00
2018-08-28T23:23:30.458Z,98304.52
2018-08-28T23:25:58.824Z,98310.72
2018-08-28T23:28:28.032Z,98305.34
2018-08-28T23:30:56.853Z,98308.40
2018-08-28T23:33:25.964Z,98306.92
2018-08-28T23:35:54.356Z,98308.40
2018-08-28T23:38:23.648Z,98307.61
2018-08-28T23:40:52.000Z,98311.17
2018-08-28T23:43:21.234Z,98311.42
2018-08-28T23:45:49.716Z,98306.66
2018-08-28T23:48:18.515Z,98299.95
2018-08-28T23:50:46.978Z,98304.47
2018-08-28T23:53:15.435Z,98304.47
2018-08-28T23:55:44.345Z,98304.50
2018-08-28T23:58:12.665Z,98303.55
